Aurora, South Dakota
Current Conditions -  °F | °C
As of 6:35 AM on Monday 24 Nov 2014 (Local Time) from KMDS Reporting Station
Light Snow Light Snow  
Wind Chill: -3°   Ceiling: 1600
Heat Index: 16°   Visibility: 10mi
Dew Point: 14°   Wind: 25mph
Humidity: 93%   Direction: 330°NNW
Pressure: 29.58"   Gusts: 32mph
Location:  44.28°N, 96.69°W
Report Text: KMDS 241235Z AUTO 33022G28KT 10SM -SN OVC016 M09/M10 A2958 RMK AO2
Loading
Personal Weather Stations






























Interactive Weather Map New forecast layout! Learn more

10-Day Weather Forecast

Advertisements
Track Severe Weather on mobile